createdAt,value
2023-03-06T00:01:05.572Z,69.55
2023-03-06T00:02:09.653Z,68.68
2023-03-06T00:03:14.825Z,68.21
2023-03-06T00:04:18.918Z,69.92
2023-03-06T00:05:21.851Z,68.58
2023-03-06T00:06:24.262Z,69.37
2023-03-06T00:07:26.432Z,68.51
2023-03-06T00:08:29.131Z,67.62
2023-03-06T00:09:31.487Z,68.96
2023-03-06T00:10:34.865Z,69.45
2023-03-06T00:11:37.132Z,68.76
2023-03-06T00:12:41.954Z,70.29
2023-03-06T00:13:44.712Z,68.20
2023-03-06T00:14:46.714Z,68.20
2023-03-06T00:15:49.158Z,67.83
2023-03-06T00:16:55.466Z,68.09
2023-03-06T00:17:58.183Z,69.10
2023-03-06T00:19:00.797Z,68.68
2023-03-06T00:20:04.556Z,68.35
2023-03-06T00:21:08.396Z,67.93
2023-03-06T00:22:13.316Z,68.12
2023-03-06T00:23:15.613Z,68.04
2023-03-06T00:24:17.890Z,67.78
2023-03-06T00:25:21.455Z,68.78
2023-03-06T00:26:23.900Z,68.59
2023-03-06T00:27:26.487Z,68.38
2023-03-06T00:28:31.505Z,69.46
2023-03-06T00:29:33.956Z,69.10
2023-03-06T00:30:36.293Z,69.10
2023-03-06T00:31:38.453Z,69.93
2023-03-06T00:32:40.970Z,68.67
2023-03-06T00:33:43.326Z,69.52
2023-03-06T00:34:52.402Z,69.72
2023-03-06T00:35:54.733Z,69.72
2023-03-06T00:36:57.131Z,68.74
2023-03-06T00:37:59.639Z,69.54
2023-03-06T00:39:02.083Z,69.84
2023-03-06T00:40:06.129Z,68.57
2023-03-06T00:41:13.436Z,68.01
2023-03-06T00:42:17.459Z,68.02
2023-03-06T00:43:19.910Z,68.08
2023-03-06T00:44:22.311Z,68.58
2023-03-06T00:45:25.408Z,68.46
2023-03-06T00:46:27.801Z,68.40
2023-03-06T00:47:32.136Z,69.02
2023-03-06T00:48:34.448Z,69.25
2023-03-06T00:49:37.294Z,69.03
2023-03-06T00:50:40.131Z,69.78
2023-03-06T00:51:42.598Z,71.00
2023-03-06T00:52:44.959Z,70.62
2023-03-06T00:53:48.351Z,69.80
2023-03-06T00:54:50.894Z,69.96
2023-03-06T00:55:53.678Z,69.33
2023-03-06T00:56:56.030Z,69.11
2023-03-06T00:57:58.391Z,68.44
2023-03-06T00:59:02.571Z,68.06
2023-03-06T01:00:06.349Z,68.70
2023-03-06T01:01:09.194Z,68.40
2023-03-06T01:02:11.845Z,67.99
2023-03-06T01:03:15.468Z,68.02
2023-03-06T01:04:17.991Z,68.12
2023-03-06T01:05:21.086Z,68.21
2023-03-06T01:06:23.772Z,68.65
2023-03-06T01:07:27.675Z,68.83
2023-03-06T01:08:30.070Z,69.34
2023-03-06T01:09:33.393Z,69.00
2023-03-06T01:10:39.913Z,68.86
2023-03-06T01:11:42.243Z,69.38
2023-03-06T01:12:47.149Z,69.46
2023-03-06T01:13:49.824Z,69.72
2023-03-06T01:14:52.071Z,70.25
2023-03-06T01:15:54.348Z,70.10
2023-03-06T01:16:57.197Z,71.03
2023-03-06T01:17:59.628Z,71.46
2023-03-06T01:19:01.842Z,71.98
2023-03-06T01:20:06.878Z,72.66
2023-03-06T01:21:09.165Z,72.81
2023-03-06T01:22:12.883Z,73.94
2023-03-06T01:23:15.288Z,75.13
2023-03-06T01:24:18.251Z,75.53
2023-03-06T01:25:21.448Z,75.74
2023-03-06T01:26:25.826Z,76.22
2023-03-06T01:27:28.087Z,77.00
2023-03-06T01:28:30.858Z,77.36
2023-03-06T01:29:32.994Z,77.92
2023-03-06T01:30:35.235Z,78.70
2023-03-06T01:31:37.647Z,79.71
2023-03-06T01:32:40.192Z,80.46
2023-03-06T01:33:42.819Z,80.57
2023-03-06T01:34:45.177Z,81.11
2023-03-06T01:35:47.671Z,81.30
2023-03-06T01:36:50.197Z,82.01
2023-03-06T01:37:52.557Z,81.90
2023-03-06T01:38:54.710Z,82.88
2023-03-06T01:39:57.557Z,82.83
2023-03-06T01:41:00.689Z,83.11
2023-03-06T01:42:04.263Z,83.37
2023-03-06T01:43:28.491Z,84.04
2023-03-06T01:44:30.906Z,84.21
2023-03-06T01:45:37.424Z,84.73
2023-03-06T01:46:42.618Z,84.94
2023-03-06T01:47:44.946Z,85.36
2023-03-06T01:48:49.707Z,85.55
2023-03-06T01:49:53.557Z,85.47
2023-03-06T01:50:56.169Z,85.60
2023-03-06T01:52:11.678Z,86.07
2023-03-06T01:53:15.271Z,86.19
2023-03-06T01:54:23.992Z,86.46
2023-03-06T01:55:29.825Z,86.62
2023-03-06T01:56:33.008Z,87.02
2023-03-06T01:57:39.580Z,87.21
2023-03-06T01:58:43.980Z,87.42
2023-03-06T01:59:51.005Z,87.40
2023-03-06T02:00:53.747Z,87.71
2023-03-06T02:01:59.689Z,88.39
2023-03-06T02:03:08.534Z,88.51
2023-03-06T02:04:13.780Z,88.54
2023-03-06T02:05:16.473Z,88.28
2023-03-06T02:06:21.165Z,88.39
2023-03-06T02:07:24.872Z,88.82
2023-03-06T02:08:27.772Z,89.06
2023-03-06T02:09:33.641Z,89.04
2023-03-06T02:10:37.119Z,89.65
2023-03-06T02:11:42.740Z,89.79
2023-03-06T02:12:46.227Z,90.07
2023-03-06T02:13:50.979Z,90.32
2023-03-06T02:14:53.925Z,90.00
2023-03-06T02:15:57.675Z,90.24
2023-03-06T02:17:00.287Z,90.15
2023-03-06T02:18:03.156Z,90.21
2023-03-06T02:19:09.306Z,90.36
2023-03-06T02:20:18.447Z,90.52
2023-03-06T02:21:26.342Z,90.52
2023-03-06T02:22:44.450Z,90.68
2023-03-06T02:23:57.074Z,90.78
2023-03-06T02:25:28.861Z,90.96
2023-03-06T02:26:34.512Z,91.00
2023-03-06T02:27:36.828Z,91.26
2023-03-06T02:28:39.525Z,91.23
2023-03-06T02:29:41.991Z,91.40
2023-03-06T02:30:48.785Z,91.54
2023-03-06T02:31:51.190Z,91.79
2023-03-06T02:32:54.293Z,91.47
2023-03-06T02:34:15.647Z,91.50
2023-03-06T02:35:21.419Z,91.52
2023-03-06T02:36:23.908Z,92.01
2023-03-06T02:37:29.327Z,92.17
2023-03-06T02:38:38.811Z,92.28
2023-03-06T02:39:44.885Z,92.22
2023-03-06T02:40:50.943Z,92.42
2023-03-06T02:41:54.759Z,92.29
2023-03-06T02:42:58.692Z,92.20
2023-03-06T02:44:01.698Z,92.32
2023-03-06T02:45:07.553Z,92.23
2023-03-06T02:46:10.875Z,92.56
2023-03-06T02:47:13.341Z,92.37
2023-03-06T02:48:18.110Z,92.42
2023-03-06T02:49:22.723Z,92.72
2023-03-06T02:50:26.313Z,92.73
2023-03-06T02:51:28.795Z,92.33
2023-03-06T02:52:31.223Z,92.79
2023-03-06T02:53:33.562Z,92.80
2023-03-06T02:54:36.237Z,92.57
2023-03-06T02:55:39.389Z,92.45
2023-03-06T02:56:41.894Z,92.34
2023-03-06T02:57:44.340Z,92.58
2023-03-06T02:58:47.122Z,92.65
2023-03-06T02:59:49.142Z,93.03
2023-03-06T03:00:51.914Z,92.62
2023-03-06T03:01:54.991Z,92.48
2023-03-06T03:02:57.901Z,92.30
2023-03-06T03:04:00.495Z,92.52
2023-03-06T03:05:04.335Z,92.35
2023-03-06T03:06:07.840Z,92.03
2023-03-06T03:07:10.776Z,92.14
2023-03-06T03:08:13.788Z,92.33
2023-03-06T03:09:16.130Z,93.06
2023-03-06T03:10:19.414Z,93.10
2023-03-06T03:11:22.945Z,93.02
2023-03-06T03:12:27.291Z,92.99
2023-03-06T03:13:30.226Z,93.21
2023-03-06T03:14:32.959Z,93.36
2023-03-06T03:15:35.700Z,92.95
2023-03-06T03:16:39.358Z,93.17
2023-03-06T03:17:42.064Z,93.41
2023-03-06T03:18:46.791Z,93.58
2023-03-06T03:19:50.865Z,93.46
2023-03-06T03:20:54.305Z,93.42
2023-03-06T03:21:56.829Z,93.76
2023-03-06T03:22:59.298Z,93.60
2023-03-06T03:24:02.847Z,93.83
2023-03-06T03:25:06.315Z,93.64
2023-03-06T03:26:15.259Z,93.61
2023-03-06T03:27:19.705Z,93.78
2023-03-06T03:28:22.099Z,93.87
2023-03-06T03:29:24.877Z,93.88
2023-03-06T03:30:29.792Z,94.07
2023-03-06T03:31:32.422Z,93.89
2023-03-06T03:32:36.404Z,94.06
2023-03-06T03:33:40.433Z,93.97
2023-03-06T03:34:43.339Z,94.16
2023-03-06T03:35:45.854Z,93.94
2023-03-06T03:36:48.370Z,93.91
2023-03-06T03:37:52.274Z,94.05
2023-03-06T03:38:54.915Z,94.35
2023-03-06T03:39:58.366Z,94.61
2023-03-06T03:41:02.026Z,94.51
2023-03-06T03:42:06.152Z,93.95
2023-03-06T03:43:08.785Z,94.01
2023-03-06T03:44:11.455Z,94.17
2023-03-06T03:45:13.818Z,94.24
2023-03-06T03:46:16.613Z,94.04
2023-03-06T03:47:19.262Z,93.85
2023-03-06T03:48:21.940Z,93.85
2023-03-06T03:49:24.852Z,93.96
2023-03-06T03:50:29.314Z,94.16
2023-03-06T03:51:32.650Z,94.14
2023-03-06T03:52:36.356Z,94.36
2023-03-06T03:53:39.131Z,94.66
2023-03-06T03:54:41.930Z,94.66
2023-03-06T03:55:47.260Z,94.45
2023-03-06T03:56:50.489Z,94.42
2023-03-06T03:57:55.103Z,94.53
2023-03-06T03:58:57.484Z,94.01
2023-03-06T04:00:00.573Z,93.78
2023-03-06T04:01:05.292Z,93.80
2023-03-06T04:02:09.032Z,93.35
2023-03-06T04:03:13.288Z,93.34
2023-03-06T04:04:19.612Z,93.04
2023-03-06T04:05:21.916Z,93.01
2023-03-06T04:06:24.360Z,92.76
2023-03-06T04:07:27.023Z,92.37
2023-03-06T04:08:29.744Z,92.47
2023-03-06T04:09:32.336Z,92.34
2023-03-06T04:10:35.962Z,92.39
2023-03-06T04:11:38.757Z,92.22
2023-03-06T04:12:41.339Z,92.00
2023-03-06T04:13:45.959Z,92.01
2023-03-06T04:14:48.902Z,92.01
2023-03-06T04:15:53.723Z,92.23
2023-03-06T04:16:56.265Z,92.31
2023-03-06T04:17:58.611Z,92.20
2023-03-06T04:19:01.785Z,91.68
2023-03-06T04:20:04.816Z,91.76
2023-03-06T04:21:07.518Z,91.98
2023-03-06T04:22:10.332Z,92.00
2023-03-06T04:23:14.384Z,92.20
2023-03-06T04:24:16.812Z,92.40
2023-03-06T04:25:19.904Z,92.28
2023-03-06T04:26:23.142Z,92.52
2023-03-06T04:27:25.858Z,92.55
2023-03-06T04:28:28.345Z,92.27
2023-03-06T04:29:31.473Z,92.23
2023-03-06T04:30:34.756Z,92.23
2023-03-06T04:31:37.818Z,92.21
2023-03-06T04:32:40.217Z,92.07
2023-03-06T04:33:43.617Z,91.34
2023-03-06T04:34:46.125Z,90.88
2023-03-06T04:35:49.081Z,90.77
2023-03-06T04:36:53.902Z,90.65
2023-03-06T04:37:56.268Z,90.19
2023-03-06T04:38:59.885Z,90.26
2023-03-06T04:40:03.758Z,89.92
2023-03-06T04:41:06.222Z,89.47
2023-03-06T04:42:08.589Z,89.72
2023-03-06T04:43:10.950Z,90.06
2023-03-06T04:44:13.694Z,89.76
2023-03-06T04:45:16.553Z,89.74
2023-03-06T04:46:19.426Z,90.03
2023-03-06T04:47:21.933Z,89.63
2023-03-06T04:48:24.186Z,89.57
2023-03-06T04:49:26.554Z,90.16
2023-03-06T04:50:32.266Z,90.78
2023-03-06T04:51:36.367Z,91.33
2023-03-06T04:52:42.261Z,91.65
2023-03-06T04:53:45.200Z,91.66
2023-03-06T04:54:47.918Z,91.61
2023-03-06T04:55:50.261Z,91.94
2023-03-06T04:56:52.559Z,91.68
2023-03-06T04:57:55.330Z,91.45
2023-03-06T04:58:57.646Z,91.43
2023-03-06T05:00:00.001Z,92.29
2023-03-06T05:01:03.148Z,92.69
2023-03-06T05:02:05.734Z,92.51
2023-03-06T05:03:08.769Z,92.78
2023-03-06T05:04:11.162Z,92.97
2023-03-06T05:05:14.369Z,93.14
2023-03-06T05:06:16.678Z,93.39
2023-03-06T05:07:19.063Z,93.48
2023-03-06T05:08:23.255Z,92.44
2023-03-06T05:09:26.335Z,91.98
2023-03-06T05:10:28.903Z,92.11
2023-03-06T05:11:31.297Z,92.00
2023-03-06T05:12:36.871Z,91.94
2023-03-06T05:13:39.199Z,92.42
2023-03-06T05:14:41.677Z,92.41
2023-03-06T05:15:44.024Z,92.50
2023-03-06T05:16:46.570Z,91.92
2023-03-06T05:17:49.284Z,92.50
2023-03-06T05:18:51.672Z,92.78
2023-03-06T05:19:54.280Z,92.49
2023-03-06T05:20:59.848Z,92.79
2023-03-06T05:22:03.103Z,92.93
2023-03-06T05:23:06.034Z,92.26
2023-03-06T05:24:10.122Z,92.19
2023-03-06T05:25:12.878Z,92.03
2023-03-06T05:26:15.856Z,92.08
2023-03-06T05:27:18.288Z,91.57
2023-03-06T05:28:21.555Z,91.09
2023-03-06T05:29:24.133Z,91.10
2023-03-06T05:30:26.425Z,91.40
2023-03-06T05:31:28.882Z,91.26
2023-03-06T05:32:32.096Z,91.08
2023-03-06T05:33:35.974Z,91.31
2023-03-06T05:34:39.671Z,91.43
2023-03-06T05:35:46.882Z,91.43
2023-03-06T05:36:49.400Z,91.34
2023-03-06T05:37:51.786Z,90.90
2023-03-06T05:38:54.239Z,91.14
2023-03-06T05:39:57.124Z,91.12
2023-03-06T05:40:59.898Z,91.26
2023-03-06T05:42:02.190Z,91.41
2023-03-06T05:43:05.922Z,91.57
2023-03-06T05:44:08.133Z,91.62
2023-03-06T05:45:11.820Z,90.85
2023-03-06T05:46:14.381Z,89.81
2023-03-06T05:47:16.663Z,89.75
2023-03-06T05:48:19.229Z,90.01
2023-03-06T05:49:21.665Z,90.20
2023-03-06T05:50:24.105Z,90.16
2023-03-06T05:51:26.368Z,90.22
2023-03-06T05:52:29.184Z,90.09
2023-03-06T05:53:32.332Z,89.35
2023-03-06T05:54:37.209Z,89.08
2023-03-06T05:55:39.646Z,88.55
2023-03-06T05:56:42.949Z,87.90
2023-03-06T05:57:45.876Z,88.33
2023-03-06T05:58:48.339Z,88.64
2023-03-06T05:59:51.878Z,88.76
2023-03-06T06:00:55.418Z,88.64
2023-03-06T06:01:58.552Z,88.30
2023-03-06T06:03:02.870Z,87.50
2023-03-06T06:04:05.145Z,86.36
2023-03-06T06:05:08.339Z,86.37
2023-03-06T06:06:13.372Z,85.93
2023-03-06T06:07:16.775Z,85.76
2023-03-06T06:08:20.299Z,85.46
2023-03-06T06:09:23.768Z,85.70
2023-03-06T06:10:26.663Z,86.44
2023-03-06T06:11:29.183Z,86.42
2023-03-06T06:12:32.080Z,86.78
2023-03-06T06:13:34.470Z,86.76
2023-03-06T06:14:37.237Z,86.15
2023-03-06T06:15:39.671Z,85.58
2023-03-06T06:16:42.547Z,84.82
2023-03-06T06:17:45.003Z,84.43
2023-03-06T06:18:47.325Z,84.62
2023-03-06T06:19:49.485Z,84.15
2023-03-06T06:20:53.433Z,82.89
2023-03-06T06:21:57.109Z,82.44
2023-03-06T06:22:59.559Z,83.12
2023-03-06T06:24:01.761Z,83.09
2023-03-06T06:25:05.800Z,82.63
2023-03-06T06:26:09.206Z,82.83
2023-03-06T06:27:14.083Z,82.93
2023-03-06T06:28:16.925Z,82.75
2023-03-06T06:29:19.791Z,82.88
2023-03-06T06:30:22.848Z,82.20
2023-03-06T06:31:25.320Z,82.02
2023-03-06T06:32:28.155Z,82.12
2023-03-06T06:33:30.329Z,82.03
2023-03-06T06:34:32.683Z,82.39
2023-03-06T06:35:37.422Z,82.76
2023-03-06T06:36:42.583Z,82.73
2023-03-06T06:37:46.574Z,82.49
2023-03-06T06:38:50.744Z,82.68
2023-03-06T06:39:53.242Z,81.86
2023-03-06T06:41:30.782Z,81.48
2023-03-06T06:42:26.562Z,81.21
2023-03-06T06:43:07.207Z,81.47
2023-03-06T06:44:14.369Z,81.00
2023-03-06T06:45:16.664Z,80.37
2023-03-06T06:46:59.284Z,79.30
2023-03-06T06:47:25.933Z,77.92
2023-03-06T06:48:29.692Z,79.12
2023-03-06T06:49:32.684Z,80.49
2023-03-06T06:50:35.098Z,80.72
2023-03-06T06:51:38.007Z,80.80
2023-03-06T06:52:40.643Z,81.48
2023-03-06T06:53:44.053Z,82.11
2023-03-06T06:54:46.536Z,82.68
2023-03-06T06:55:48.776Z,82.29
2023-03-06T06:56:51.510Z,82.44
2023-03-06T06:57:53.833Z,82.58
2023-03-06T06:59:13.943Z,82.13
2023-03-06T07:00:05.804Z,82.24
2023-03-06T07:01:10.697Z,82.82
2023-03-06T07:02:15.207Z,82.23
2023-03-06T07:03:17.797Z,82.09
2023-03-06T07:04:20.182Z,81.99
2023-03-06T07:05:22.895Z,82.08
2023-03-06T07:06:26.376Z,83.45
2023-03-06T07:07:29.067Z,83.45
2023-03-06T07:08:31.410Z,83.81
2023-03-06T07:09:34.840Z,82.66
2023-03-06T07:10:39.213Z,82.77
2023-03-06T07:11:42.105Z,83.23
2023-03-06T07:12:45.588Z,83.36
2023-03-06T07:13:49.051Z,82.98
2023-03-06T07:14:52.397Z,82.95
2023-03-06T07:15:56.804Z,82.65
2023-03-06T07:16:58.978Z,82.28
2023-03-06T07:18:01.691Z,82.20
2023-03-06T07:19:04.248Z,82.27
2023-03-06T07:20:08.333Z,82.39
2023-03-06T07:21:11.380Z,82.21
2023-03-06T07:22:14.886Z,82.81
2023-03-06T07:23:17.298Z,83.35
2023-03-06T07:24:19.725Z,83.59
2023-03-06T07:25:22.849Z,83.40
2023-03-06T07:26:26.712Z,83.62
2023-03-06T07:27:29.079Z,83.00
2023-03-06T07:28:46.197Z,82.95
2023-03-06T07:29:37.212Z,82.77
2023-03-06T07:30:43.561Z,82.36
2023-03-06T07:31:46.860Z,81.81
2023-03-06T07:32:52.878Z,81.65
2023-03-06T07:33:55.646Z,81.82
2023-03-06T07:35:18.766Z,81.38
2023-03-06T07:36:04.167Z,81.38
2023-03-06T07:37:06.650Z,81.08
2023-03-06T07:38:09.493Z,81.13
2023-03-06T07:39:12.125Z,81.11
2023-03-06T07:40:14.812Z,80.72
2023-03-06T07:41:19.772Z,80.16
2023-03-06T07:42:22.585Z,80.43
2023-03-06T07:43:26.918Z,80.15
2023-03-06T07:44:32.219Z,80.31
2023-03-06T07:45:35.147Z,80.14
2023-03-06T07:46:37.780Z,80.19
2023-03-06T07:47:41.162Z,79.92
2023-03-06T07:48:43.983Z,79.77
2023-03-06T07:49:46.494Z,79.28
2023-03-06T07:51:00.915Z,79.33
2023-03-06T07:52:03.886Z,80.57
2023-03-06T07:53:06.541Z,80.78
2023-03-06T07:54:09.203Z,80.37
2023-03-06T07:55:12.370Z,79.72
2023-03-06T07:56:15.574Z,79.27
2023-03-06T07:57:18.284Z,80.49
2023-03-06T07:58:22.391Z,81.39
2023-03-06T07:59:25.188Z,84.48
2023-03-06T08:00:27.717Z,78.44
2023-03-06T08:01:30.334Z,77.44
2023-03-06T08:02:32.984Z,75.39
2023-03-06T08:03:36.154Z,77.04
2023-03-06T08:04:38.645Z,75.38
2023-03-06T08:05:42.514Z,75.18
2023-03-06T08:06:46.476Z,75.13
2023-03-06T08:07:49.650Z,74.63
2023-03-06T08:10:16.884Z,73.25
2023-03-06T08:11:24.937Z,73.25
2023-03-06T08:12:27.708Z,74.79
2023-03-06T08:13:30.537Z,75.79
2023-03-06T08:14:34.719Z,74.66
2023-03-06T08:15:36.919Z,75.29
2023-03-06T08:16:39.888Z,75.47
2023-03-06T08:17:42.795Z,76.35
2023-03-06T08:18:46.468Z,74.54
2023-03-06T08:19:49.212Z,75.40
2023-03-06T08:21:04.156Z,75.80
2023-03-06T08:22:06.693Z,74.87
2023-03-06T08:23:09.121Z,75.68
2023-03-06T08:24:14.534Z,74.70
2023-03-06T08:25:16.903Z,74.17
2023-03-06T08:26:25.260Z,73.27
2023-03-06T08:27:28.159Z,73.12
2023-03-06T08:28:31.162Z,71.83
2023-03-06T08:29:33.695Z,72.37
2023-03-06T08:30:36.142Z,71.93
2023-03-06T08:31:43.764Z,72.34
2023-03-06T08:32:46.834Z,72.50
2023-03-06T08:33:49.469Z,72.32
2023-03-06T08:34:51.946Z,73.30
2023-03-06T08:35:55.406Z,73.52
2023-03-06T08:36:58.477Z,73.58
2023-03-06T08:38:00.823Z,73.31
2023-03-06T08:39:04.364Z,72.48
2023-03-06T08:40:09.122Z,72.78
2023-03-06T08:41:11.540Z,72.64
2023-03-06T08:42:15.353Z,72.06
2023-03-06T08:43:17.833Z,71.16
2023-03-06T08:44:20.118Z,71.31
2023-03-06T08:45:23.640Z,70.67
2023-03-06T08:46:30.072Z,71.20
2023-03-06T08:47:36.602Z,70.94
2023-03-06T08:48:39.260Z,71.07
2023-03-06T08:49:43.539Z,71.18
2023-03-06T08:50:46.579Z,71.53
2023-03-06T08:51:49.504Z,70.60
2023-03-06T08:52:52.933Z,69.66
2023-03-06T08:53:56.804Z,69.19
2023-03-06T08:55:01.251Z,68.91
2023-03-06T08:56:04.432Z,68.37
2023-03-06T08:57:07.291Z,67.88
2023-03-06T08:58:09.961Z,67.71
2023-03-06T08:59:12.912Z,68.11
2023-03-06T09:00:17.693Z,68.57
2023-03-06T09:01:23.119Z,67.97
2023-03-06T09:02:26.212Z,67.57
2023-03-06T09:03:28.523Z,67.19
2023-03-06T09:04:31.894Z,66.28
2023-03-06T09:05:34.865Z,67.44
2023-03-06T09:06:41.024Z,67.35
2023-03-06T09:07:43.763Z,67.20
2023-03-06T09:08:46.806Z,65.64
2023-03-06T09:09:49.541Z,65.25
2023-03-06T09:10:53.131Z,65.45
2023-03-06T09:11:56.867Z,65.60
2023-03-06T09:12:59.752Z,71.53
2023-03-06T09:14:03.710Z,72.23
2023-03-06T09:15:07.800Z,76.18
2023-03-06T09:16:11.719Z,74.54
2023-03-06T09:17:15.226Z,76.60
2023-03-06T09:18:17.514Z,73.59
2023-03-06T09:19:19.799Z,72.63
2023-03-06T09:20:24.801Z,67.81
2023-03-06T09:21:28.109Z,63.26
2023-03-06T09:22:30.708Z,66.44
2023-03-06T09:23:33.363Z,63.39
2023-03-06T09:24:36.270Z,64.43
2023-03-06T09:25:38.557Z,68.84
2023-03-06T09:26:46.201Z,74.55
2023-03-06T09:27:44.824Z,65.90
2023-03-06T09:28:47.304Z,73.39
2023-03-06T09:29:49.814Z,70.06
2023-03-06T09:30:53.986Z,67.55
2023-03-06T09:31:56.923Z,62.78
2023-03-06T09:32:59.736Z,63.88
2023-03-06T09:34:03.441Z,64.25
2023-03-06T09:35:07.258Z,63.71
2023-03-06T09:36:14.378Z,63.22
2023-03-06T09:37:17.604Z,63.17
2023-03-06T09:38:21.871Z,63.49
2023-03-06T09:39:26.598Z,63.19
2023-03-06T09:40:35.685Z,63.87
2023-03-06T09:41:41.607Z,63.60
2023-03-06T09:42:43.939Z,64.18
2023-03-06T09:43:50.505Z,64.73
2023-03-06T09:44:59.948Z,63.90
2023-03-06T09:46:09.639Z,62.95
2023-03-06T09:47:46.243Z,61.49
2023-03-06T09:49:25.611Z,61.55
2023-03-06T09:50:34.262Z,61.36
2023-03-06T09:51:44.198Z,60.36
2023-03-06T09:53:17.278Z,59.62
2023-03-06T09:55:39.021Z,60.54
2023-03-06T09:56:48.538Z,61.18
2023-03-06T09:58:00.277Z,61.51
2023-03-06T09:59:09.050Z,60.38
2023-03-06T10:00:16.343Z,60.99
2023-03-06T10:01:25.606Z,60.51
2023-03-06T10:02:44.828Z,60.87
2023-03-06T10:04:00.656Z,59.67
2023-03-06T10:05:07.017Z,60.30
2023-03-06T10:06:13.546Z,59.44
2023-03-06T10:07:23.573Z,58.42
2023-03-06T10:08:47.986Z,58.51
2023-03-06T10:09:59.868Z,57.73
2023-03-06T10:11:06.252Z,57.70
2023-03-06T10:12:25.158Z,57.98
2023-03-06T10:13:40.541Z,57.32
2023-03-06T10:16:16.334Z,57.27
2023-03-06T10:17:21.824Z,57.63
2023-03-06T10:18:24.090Z,57.29
2023-03-06T10:19:35.172Z,57.78
2023-03-06T10:20:50.272Z,57.34
2023-03-06T10:22:05.587Z,57.79
2023-03-06T10:23:19.360Z,57.33
2023-03-06T10:24:59.506Z,58.26
2023-03-06T10:26:05.252Z,57.01
2023-03-06T10:27:31.437Z,56.81
2023-03-06T10:28:44.017Z,57.00
2023-03-06T10:30:02.827Z,57.27
2023-03-06T10:31:07.866Z,57.83
2023-03-06T10:32:20.151Z,57.01
2023-03-06T10:33:44.292Z,55.79
2023-03-06T10:34:47.460Z,55.60
2023-03-06T10:35:52.845Z,56.01
2023-03-06T10:36:58.318Z,55.81
2023-03-06T10:39:28.227Z,55.81
2023-03-06T10:40:34.464Z,55.66
2023-03-06T10:41:38.421Z,55.33
2023-03-06T10:42:40.874Z,54.51
2023-03-06T10:43:46.348Z,55.06
2023-03-06T10:44:50.498Z,55.60
2023-03-06T10:45:53.725Z,55.78
2023-03-06T10:46:59.093Z,56.50
2023-03-06T10:48:13.451Z,56.86
2023-03-06T10:49:35.727Z,56.06
2023-03-06T10:50:38.437Z,56.45
2023-03-06T10:51:44.922Z,56.55
2023-03-06T10:52:51.923Z,57.56
2023-03-06T10:54:02.287Z,57.73
2023-03-06T10:55:26.802Z,56.74
2023-03-06T10:56:39.804Z,55.25
2023-03-06T10:57:42.272Z,54.93
2023-03-06T10:58:44.599Z,55.37
2023-03-06T10:59:53.033Z,53.62
2023-03-06T11:01:18.945Z,52.97
2023-03-06T11:02:36.686Z,52.63
2023-03-06T11:03:39.561Z,53.95
2023-03-06T11:04:45.815Z,52.74
2023-03-06T11:06:07.127Z,52.13
2023-03-06T11:07:19.000Z,52.17
2023-03-06T11:08:23.913Z,52.47
2023-03-06T11:09:27.256Z,53.03
2023-03-06T11:10:31.376Z,52.83
2023-03-06T11:11:37.745Z,53.04
2023-03-06T11:12:41.707Z,53.55
2023-03-06T11:13:44.215Z,52.17
2023-03-06T11:14:46.869Z,52.86
2023-03-06T11:16:02.023Z,52.83
2023-03-06T11:17:04.940Z,54.22
2023-03-06T11:18:13.892Z,53.42
2023-03-06T11:19:19.869Z,53.00
2023-03-06T11:20:26.154Z,53.59
2023-03-06T11:21:34.589Z,55.14
2023-03-06T11:22:39.329Z,53.14
2023-03-06T11:23:47.756Z,52.23
2023-03-06T11:24:53.615Z,55.13
2023-03-06T11:26:19.490Z,51.07
2023-03-06T11:27:37.899Z,51.42
2023-03-06T11:29:06.784Z,52.11
2023-03-06T11:30:17.030Z,52.18
2023-03-06T11:31:25.820Z,50.34
2023-03-06T11:32:34.881Z,50.85
2023-03-06T11:33:55.968Z,50.60
2023-03-06T11:35:07.768Z,50.86
2023-03-06T11:36:32.720Z,51.41
2023-03-06T11:37:59.047Z,51.39
2023-03-06T11:39:05.032Z,51.99
2023-03-06T11:40:20.889Z,53.12
2023-03-06T11:41:49.604Z,53.58
2023-03-06T11:43:01.511Z,51.57
2023-03-06T11:44:37.996Z,50.19
2023-03-06T11:45:56.446Z,49.07
2023-03-06T11:47:15.089Z,48.21
2023-03-06T11:48:27.785Z,48.92
2023-03-06T11:49:34.471Z,47.64
2023-03-06T11:50:40.608Z,48.73
2023-03-06T11:51:46.576Z,47.46
2023-03-06T11:52:53.110Z,47.16
2023-03-06T11:53:59.599Z,46.44
2023-03-06T11:55:02.311Z,45.62
2023-03-06T11:56:22.228Z,45.15
2023-03-06T11:57:38.123Z,47.39
2023-03-06T11:59:01.456Z,47.41
2023-03-06T12:00:19.061Z,46.62
2023-03-06T12:01:42.310Z,47.45
2023-03-06T12:03:00.238Z,47.30
2023-03-06T12:04:35.470Z,46.82
2023-03-06T12:05:44.325Z,46.84
2023-03-06T12:07:15.735Z,45.90
2023-03-06T12:08:25.197Z,46.96
2023-03-06T12:09:53.570Z,47.98
2023-03-06T12:11:32.685Z,45.56
2023-03-06T12:12:53.475Z,44.72
2023-03-06T12:14:06.531Z,44.78
2023-03-06T12:15:33.018Z,45.14
2023-03-06T12:16:58.725Z,44.46
2023-03-06T12:18:27.041Z,43.01
2023-03-06T12:19:36.169Z,43.46
2023-03-06T12:20:57.831Z,43.13
2023-03-06T12:22:12.672Z,43.43
2023-03-06T12:23:35.747Z,44.73
2023-03-06T12:24:58.449Z,44.21
2023-03-06T12:26:17.426Z,45.97
2023-03-06T12:27:32.131Z,46.05
2023-03-06T12:28:39.042Z,47.33
2023-03-06T12:29:51.305Z,46.14
2023-03-06T12:31:19.544Z,45.03
2023-03-06T12:32:29.527Z,46.32
2023-03-06T12:33:40.158Z,43.91
2023-03-06T12:34:57.448Z,44.05
2023-03-06T12:36:03.718Z,44.40
2023-03-06T12:37:19.030Z,44.92
2023-03-06T12:38:33.304Z,44.74
2023-03-06T12:40:03.494Z,44.89
2023-03-06T12:41:22.599Z,46.21
2023-03-06T12:42:49.436Z,42.79
2023-03-06T12:44:17.193Z,43.14
2023-03-06T12:45:34.882Z,64.58
2023-03-06T12:46:41.210Z,45.13
2023-03-06T12:47:47.166Z,40.66
2023-03-06T12:49:04.966Z,54.64
2023-03-06T12:50:12.979Z,43.40
2023-03-06T12:51:18.897Z,40.59
2023-03-06T12:52:30.164Z,40.43
2023-03-06T12:53:31.388Z,40.32
2023-03-06T12:54:37.427Z,40.58
2023-03-06T12:55:43.523Z,41.11
2023-03-06T12:56:48.388Z,39.81
2023-03-06T12:57:52.096Z,40.15
2023-03-06T12:58:56.646Z,40.19
2023-03-06T12:59:58.937Z,39.24
2023-03-06T13:01:11.146Z,39.56
2023-03-06T13:02:35.606Z,39.25
2023-03-06T13:03:59.748Z,38.24
2023-03-06T13:05:21.912Z,38.90
2023-03-06T13:06:38.938Z,38.63
2023-03-06T13:07:59.862Z,37.66
2023-03-06T13:09:15.972Z,39.41
2023-03-06T13:12:19.185Z,36.32
2023-03-06T13:13:41.461Z,36.25
2023-03-06T13:14:54.092Z,37.02
2023-03-06T13:16:18.158Z,35.69
2023-03-06T13:17:26.420Z,37.27
2023-03-06T13:18:39.643Z,38.93
2023-03-06T13:19:42.436Z,36.67
2023-03-06T13:20:46.168Z,37.31
2023-03-06T13:21:58.274Z,38.08
2023-03-06T13:23:33.530Z,38.30
2023-03-06T13:24:37.601Z,37.44
2023-03-06T13:25:50.004Z,36.66
2023-03-06T13:27:07.725Z,37.19
2023-03-06T13:28:14.222Z,38.01
2023-03-06T13:29:37.883Z,36.18
2023-03-06T13:30:46.656Z,36.86
2023-03-06T13:31:57.563Z,37.06
2023-03-06T13:32:59.994Z,38.81
2023-03-06T13:34:04.722Z,37.20
2023-03-06T13:36:41.938Z,38.16
2023-03-06T13:37:49.289Z,36.95
2023-03-06T13:38:57.761Z,36.16
2023-03-06T13:40:07.841Z,38.00
2023-03-06T13:41:28.370Z,38.64
2023-03-06T13:42:44.598Z,37.09
2023-03-06T13:43:48.638Z,37.20
2023-03-06T13:44:51.314Z,37.54
2023-03-06T13:45:58.364Z,38.97
2023-03-06T13:47:29.702Z,38.87
2023-03-06T13:48:44.828Z,36.80
2023-03-06T13:49:42.668Z,36.88
2023-03-06T13:50:50.041Z,37.03
2023-03-06T13:52:07.151Z,36.92
2023-03-06T13:53:32.025Z,36.87
2023-03-06T13:54:45.187Z,37.51
2023-03-06T13:56:20.687Z,36.46
2023-03-06T13:57:51.226Z,35.90
2023-03-06T13:59:17.583Z,37.53
2023-03-06T14:00:40.359Z,35.90
2023-03-06T14:01:49.815Z,36.10
2023-03-06T14:03:23.746Z,36.32
2023-03-06T14:04:37.796Z,36.77
2023-03-06T14:05:48.962Z,36.89
2023-03-06T14:07:06.277Z,37.20
2023-03-06T14:08:12.014Z,36.21
2023-03-06T14:09:35.029Z,36.45
2023-03-06T14:10:38.794Z,34.87
2023-03-06T14:11:45.185Z,34.92
2023-03-06T14:12:55.636Z,35.55
2023-03-06T14:13:59.255Z,36.32
2023-03-06T14:15:06.080Z,36.99
2023-03-06T14:16:21.468Z,36.85
2023-03-06T14:17:30.469Z,36.16
2023-03-06T14:18:39.829Z,36.38
2023-03-06T14:19:43.191Z,39.14
2023-03-06T14:20:56.581Z,37.68
2023-03-06T14:22:03.221Z,38.82
2023-03-06T14:23:30.178Z,40.11
2023-03-06T14:24:44.309Z,39.36
2023-03-06T14:25:49.632Z,37.66